Time;durP1;ratioP1;P1;durP2;ratioP2;P2;SDS_P1;SDS_P2;PMS_P1;PMS_P2;Temp;Humidity;BMP_temperature;BMP_pressure;BME280_temperature;BME280_humidity;BME280_pressure;Samples;Min_cycle;Max_cycle;Signal;HPM_P1;HPM_P2
2023/09/05 00:01:38;;;;;;;5.93;3.70;;;17.10;98.00;;;;;;5012469;28;20483;-68
2023/09/05 00:04:05;;;;;;;7.83;3.80;;;17.20;98.00;;;;;;5044369;28;20902;-68
2023/09/05 00:06:32;;;;;;;7.40;3.90;;;17.10;98.00;;;;;;5012490;28;20603;-69
2023/09/05 00:09:00;;;;;;;6.30;3.47;;;17.20;98.00;;;;;;5044236;28;20807;-67
2023/09/05 00:11:27;;;;;;;8.10;3.57;;;17.30;98.00;;;;;;5011408;28;20468;-67
2023/09/05 00:13:56;;;;;;;7.13;4.03;;;17.30;98.00;;;;;;5012293;28;20454;-68
2023/09/05 00:16:25;;;;;;;6.70;3.57;;;17.30;98.00;;;;;;5012391;28;20960;-68
2023/09/05 00:18:52;;;;;;;7.10;3.90;;;17.30;98.00;;;;;;5043830;28;20999;-68
2023/09/05 00:21:19;;;;;;;11.63;4.23;;;17.30;98.00;;;;;;5012393;28;20488;-68
2023/09/05 00:23:46;;;;;;;5.13;3.53;;;17.30;98.00;;;;;;5010832;28;20487;-68
2023/09/05 00:26:13;;;;;;;7.60;3.63;;;17.20;98.00;;;;;;5012205;28;20474;-69
2023/09/05 00:28:41;;;;;;;11.00;3.90;;;17.20;98.00;;;;;;5012022;28;20502;-67
2023/09/05 00:31:11;;;;;;;8.50;3.50;;;17.10;98.00;;;;;;5012344;28;20484;-67
2023/09/05 00:33:39;;;;;;;5.00;3.33;;;17.10;98.00;;;;;;5012012;28;20451;-68
2023/09/05 00:36:06;;;;;;;6.47;3.60;;;17.20;98.00;;;;;;5012087;28;20661;-68
2023/09/05 00:38:33;;;;;;;6.20;3.20;;;17.00;98.00;;;;;;5012467;28;20467;-68
2023/09/05 00:41:02;;;;;;;6.70;3.73;;;17.00;98.00;;;;;;5010737;28;20483;-67
2023/09/05 00:43:29;;;;;;;5.87;3.20;;;16.90;98.00;;;;;;5011923;28;20950;-69
2023/09/05 00:45:56;;;;;;;5.50;3.03;;;17.00;98.00;;;;;;5012055;28;20447;-67
2023/09/05 00:48:27;;;;;;;5.23;2.80;;;17.10;98.00;;;;;;5011771;28;20499;-68
2023/09/05 00:50:57;;;;;;;5.90;3.33;;;17.00;98.00;;;;;;5042554;28;20466;-68
2023/09/05 00:53:25;;;;;;;5.00;3.10;;;17.10;98.00;;;;;;5011669;28;20513;-69
2023/09/05 00:55:53;;;;;;;5.03;2.90;;;17.00;98.00;;;;;;5011989;28;20694;-68
2023/09/05 00:58:21;;;;;;;6.43;2.90;;;17.00;98.00;;;;;;5010468;28;20448;-68
2023/09/05 01:00:48;;;;;;;5.77;2.93;;;17.00;98.00;;;;;;5011606;28;20483;-67
2023/09/05 01:03:16;;;;;;;3.87;2.50;;;17.10;98.00;;;;;;5043092;28;21171;-68
2023/09/05 01:05:51;;;;;;;5.37;2.80;;;17.00;98.00;;;;;;5043119;28;20989;-68
2023/09/05 01:08:27;;;;;;;6.13;2.60;;;16.90;98.00;;;;;;5011517;28;20929;-67
2023/09/05 01:11:00;;;;;;;5.77;3.23;;;16.90;98.00;;;;;;5011507;28;20865;-67
2023/09/05 01:13:28;;;;;;;4.80;3.10;;;16.80;98.00;;;;;;5011324;28;20443;-68
2023/09/05 01:15:55;;;;;;;4.47;2.80;;;16.80;98.00;;;;;;5011452;28;20463;-69
2023/09/05 01:18:23;;;;;;;7.70;3.00;;;16.90;98.00;;;;;;5011311;28;20452;-69
2023/09/05 01:21:01;;;;;;;3.83;2.70;;;17.00;98.00;;;;;;5011293;28;20479;-67
2023/09/05 01:23:38;;;;;;;5.17;3.00;;;17.00;98.00;;;;;;5015466;28;20467;-68
2023/09/05 01:26:07;;;;;;;6.13;2.70;;;16.90;98.00;;;;;;5015532;28;20459;-68
2023/09/05 01:28:35;;;;;;;4.73;2.93;;;16.70;98.00;;;;;;5015406;28;20448;-68
2023/09/05 01:31:03;;;;;;;5.87;3.10;;;16.70;98.00;;;;;;5015903;28;20506;-69
2023/09/05 01:33:30;;;;;;;3.60;2.47;;;16.70;98.00;;;;;;5046961;28;20455;-68
2023/09/05 01:35:57;;;;;;;5.20;2.97;;;16.60;98.00;;;;;;5047121;28;20526;-68
2023/09/05 01:38:27;;;;;;;7.83;3.00;;;16.60;98.00;;;;;;5015171;28;20455;-68
2023/09/05 01:40:55;;;;;;;4.80;2.90;;;16.50;98.00;;;;;;5015148;28;20479;-68
2023/09/05 01:43:23;;;;;;;4.40;3.00;;;16.50;98.00;;;;;;5046829;28;20517;-68
2023/09/05 01:45:52;;;;;;;4.10;2.70;;;16.50;98.00;;;;;;5015453;28;20453;-67
2023/09/05 01:48:19;;;;;;;3.77;2.57;;;16.40;98.00;;;;;;5016257;28;20945;-67
2023/09/05 01:50:46;;;;;;;5.57;2.80;;;16.40;98.00;;;;;;5016129;28;20456;-68
2023/09/05 01:53:13;;;;;;;4.13;2.53;;;16.40;98.00;;;;;;5015215;28;20798;-69
2023/09/05 01:55:40;;;;;;;3.90;2.53;;;16.50;98.00;;;;;;5015223;28;20903;-67
2023/09/05 01:58:07;;;;;;;4.23;2.97;;;16.60;98.00;;;;;;5014851;28;20451;-68
2023/09/05 02:00:36;;;;;;;4.67;3.03;;;16.70;98.00;;;;;;5014793;28;20494;-68
2023/09/05 02:03:03;;;;;;;2.63;2.50;;;16.70;98.00;;;;;;5014970;28;20448;-68
2023/09/05 02:05:30;;;;;;;4.73;2.80;;;16.70;98.00;;;;;;5014752;28;20456;-68
2023/09/05 02:07:57;;;;;;;6.47;3.20;;;16.60;98.00;;;;;;5014898;28;20459;-69
2023/09/05 02:10:24;;;;;;;4.30;2.73;;;16.80;98.00;;;;;;5014759;28;20494;-68
2023/09/05 02:12:51;;;;;;;6.37;2.83;;;16.80;98.00;;;;;;5014927;28;20847;-67
2023/09/05 02:15:18;;;;;;;4.47;2.90;;;16.70;98.00;;;;;;5014843;28;20451;-69
2023/09/05 02:17:51;;;;;;;4.83;3.20;;;16.70;98.00;;;;;;5014569;28;20466;-67
2023/09/05 02:20:18;;;;;;;3.50;2.53;;;16.70;98.00;;;;;;5013465;28;20823;-68
2023/09/05 02:22:46;;;;;;;5.97;3.20;;;16.60;98.00;;;;;;5013596;28;20460;-67
2023/09/05 02:25:13;;;;;;;5.33;2.97;;;16.60;98.00;;;;;;5013732;28;20463;-68
2023/09/05 02:27:40;;;;;;;4.60;2.80;;;16.50;98.00;;;;;;5014747;28;20458;-68
2023/09/05 02:30:08;;;;;;;4.47;2.97;;;16.50;98.00;;;;;;5013637;28;20870;-67
2023/09/05 02:32:35;;;;;;;8.40;3.30;;;16.40;98.00;;;;;;5012910;28;20840;-68
2023/09/05 02:35:06;;;;;;;5.53;2.53;;;16.40;98.00;;;;;;5012856;28;20456;-68
2023/09/05 02:37:33;;;;;;;4.27;2.63;;;16.40;98.00;;;;;;5014393;28;20560;-68
2023/09/05 02:40:00;;;;;;;4.07;2.50;;;16.40;98.00;;;;;;5014344;28;20458;-68
2023/09/05 02:42:27;;;;;;;5.37;3.20;;;16.60;98.00;;;;;;5014304;28;20483;-68
2023/09/05 02:44:54;;;;;;;4.93;3.07;;;16.60;98.00;;;;;;5014518;28;20459;-68
2023/09/05 02:47:22;;;;;;;4.57;2.77;;;16.70;98.00;;;;;;5013405;28;20530;-68
2023/09/05 02:49:50;;;;;;;3.77;2.67;;;16.70;98.00;;;;;;5014582;28;20833;-68
2023/09/05 02:52:21;;;;;;;5.03;2.90;;;16.70;98.00;;;;;;5014124;28;20452;-67
2023/09/05 02:54:48;;;;;;;5.00;2.93;;;16.70;98.00;;;;;;5013946;28;20444;-68
2023/09/05 02:57:15;;;;;;;4.83;2.90;;;16.70;98.00;;;;;;5013935;28;20467;-68
2023/09/05 02:59:42;;;;;;;4.60;2.90;;;16.70;98.00;;;;;;5013856;28;20522;-68
2023/09/05 03:02:09;;;;;;;6.70;3.00;;;16.70;98.00;;;;;;5013738;28;20483;-68
2023/09/05 03:04:36;;;;;;;5.10;2.77;;;16.80;98.00;;;;;;5013486;28;20462;-67
2023/09/05 03:07:03;;;;;;;4.10;2.83;;;16.80;98.00;;;;;;5013890;28;20452;-67
2023/09/05 03:09:33;;;;;;;6.03;3.10;;;16.80;98.00;;;;;;5013445;28;20452;-67
2023/09/05 03:12:01;;;;;;;5.10;2.67;;;16.80;98.00;;;;;;5013679;28;20476;-68
2023/09/05 03:14:28;;;;;;;7.13;3.50;;;17.00;98.00;;;;;;5013373;28;20451;-67
2023/09/05 03:16:55;;;;;;;7.53;3.97;;;17.00;98.00;;;;;;5013435;28;20474;-67
2023/09/05 03:19:22;;;;;;;7.87;3.80;;;17.00;98.00;;;;;;5013292;28;20456;-68
2023/09/05 03:21:49;;;;;;;5.30;3.20;;;17.00;98.00;;;;;;5013320;28;20483;-68
2023/09/05 03:24:17;;;;;;;4.20;2.90;;;17.00;98.00;;;;;;5013548;28;20452;-68
2023/09/05 03:26:46;;;;;;;5.40;2.90;;;16.90;98.00;;;;;;5013425;28;20534;-68
2023/09/05 03:29:14;;;;;;;3.90;2.70;;;17.00;98.00;;;;;;5013365;28;20825;-68
2023/09/05 03:31:41;;;;;;;4.83;3.00;;;17.10;98.00;;;;;;5013288;28;20483;-69
2023/09/05 03:34:09;;;;;;;5.33;3.17;;;17.00;98.00;;;;;;5013038;28;20455;-68
2023/09/05 03:36:36;;;;;;;5.00;3.13;;;16.90;98.00;;;;;;5013206;28;20448;-68
2023/09/05 03:39:03;;;;;;;5.57;3.30;;;16.80;98.00;;;;;;5012978;28;20979;-68
2023/09/05 03:41:31;;;;;;;5.90;3.30;;;16.60;98.00;;;;;;5012928;28;20503;-69
2023/09/05 03:44:00;;;;;;;4.80;3.00;;;16.70;98.00;;;;;;5012918;28;20964;-68
2023/09/05 03:46:27;;;;;;;4.67;2.87;;;16.60;98.00;;;;;;5011804;28;20447;-68
2023/09/05 03:48:55;;;;;;;7.23;2.97;;;16.50;98.00;;;;;;5012877;28;20845;-68
2023/09/05 03:51:22;;;;;;;5.27;3.03;;;16.40;98.00;;;;;;5011527;28;20988;-68
2023/09/05 03:53:51;;;;;;;5.90;2.90;;;16.40;98.00;;;;;;5012771;28;20459;-68
2023/09/05 03:56:18;;;;;;;6.70;3.27;;;16.40;98.00;;;;;;5013079;28;20644;-67
2023/09/05 03:58:45;;;;;;;5.50;2.90;;;16.50;98.00;;;;;;5012649;28;20448;-68
2023/09/05 04:01:17;;;;;;;4.90;2.90;;;16.50;98.00;;;;;;5012759;28;20483;-68
2023/09/05 04:03:45;;;;;;;12.20;3.03;;;16.40;98.00;;;;;;5012792;28;20799;-67
2023/09/05 04:06:12;;;;;;;6.20;3.10;;;16.30;98.00;;;;;;5012798;28;20447;-67
2023/09/05 04:08:39;;;;;;;4.90;3.10;;;16.20;98.00;;;;;;5012629;28;20456;-68
2023/09/05 04:11:06;;;;;;;6.07;3.23;;;16.00;98.00;;;;;;5012542;28;20459;-68
2023/09/05 04:13:33;;;;;;;4.30;2.53;;;16.00;98.00;;;;;;5012587;28;20451;-68
2023/09/05 04:16:04;;;;;;;4.80;2.97;;;16.00;98.00;;;;;;5012343;28;20448;-67
2023/09/05 04:18:34;;;;;;;5.77;2.90;;;16.00;98.00;;;;;;5012246;28;20451;-68
2023/09/05 04:21:01;;;;;;;6.50;3.30;;;16.00;98.00;;;;;;5012226;28;20985;-68
2023/09/05 04:23:29;;;;;;;6.13;3.10;;;16.00;98.00;;;;;;5012188;28;20456;-68
2023/09/05 04:25:57;;;;;;;4.60;2.90;;;16.00;98.00;;;;;;5012475;28;20488;-67
2023/09/05 04:28:25;;;;;;;4.63;2.80;;;15.90;98.00;;;;;;5012111;28;20463;-67
2023/09/05 04:30:55;;;;;;;4.60;3.07;;;15.80;98.00;;;;;;5010744;28;20867;-67
2023/09/05 04:33:24;;;;;;;7.60;3.17;;;15.90;98.00;;;;;;5012058;28;20534;-67
2023/09/05 04:35:53;;;;;;;6.87;3.13;;;15.80;98.00;;;;;;5010728;28;20893;-67
2023/09/05 04:38:23;;;;;;;5.00;2.80;;;15.70;98.00;;;;;;5011845;28;20451;-67
2023/09/05 04:40:50;;;;;;;4.93;3.10;;;15.70;98.00;;;;;;5012002;28;20444;-67
2023/09/05 04:43:17;;;;;;;5.03;2.80;;;15.60;98.00;;;;;;5010509;28;20487;-69
2023/09/05 04:45:54;;;;;;;5.27;3.00;;;15.70;98.00;;;;;;5011810;28;20463;-67
2023/09/05 04:48:21;;;;;;;5.77;3.10;;;15.70;98.00;;;;;;5011782;28;20561;-67
2023/09/05 04:50:48;;;;;;;6.53;3.47;;;15.70;98.00;;;;;;5010774;28;20857;-67
2023/09/05 04:53:16;;;;;;;7.20;3.13;;;15.70;98.00;;;;;;5011904;28;20447;-69
2023/09/05 04:55:43;;;;;;;5.13;3.20;;;15.60;98.00;;;;;;5011426;28;20529;-67
2023/09/05 04:58:12;;;;;;;6.00;3.20;;;15.60;98.00;;;;;;5011466;28;20459;-68
2023/09/05 05:00:39;;;;;;;6.50;3.30;;;15.70;98.00;;;;;;5011582;28;20592;-66
2023/09/05 05:03:06;;;;;;;5.23;3.00;;;15.60;98.00;;;;;;5011701;28;20483;-68
2023/09/05 05:05:33;;;;;;;4.13;2.90;;;15.60;98.00;;;;;;5011833;28;20459;-68
2023/09/05 05:08:00;;;;;;;5.50;3.00;;;15.70;98.00;;;;;;5011786;28;20448;-67
2023/09/05 05:10:30;;;;;;;6.40;3.53;;;15.80;98.00;;;;;;5011741;28;20455;-67
2023/09/05 05:12:57;;;;;;;4.17;2.70;;;15.70;98.00;;;;;;5011623;28;20455;-68
2023/09/05 05:15:24;;;;;;;4.43;3.10;;;15.70;98.00;;;;;;5010687;28;20982;-67
2023/09/05 05:17:51;;;;;;;6.00;3.47;;;15.70;98.00;;;;;;5010232;28;20474;-68
2023/09/05 05:20:18;;;;;;;7.63;3.70;;;15.70;98.00;;;;;;5011459;28;20467;-67
2023/09/05 05:22:45;;;;;;;6.37;3.30;;;15.60;98.00;;;;;;5011376;28;20499;-67
2023/09/05 05:25:14;;;;;;;5.10;2.90;;;15.60;98.00;;;;;;5011446;28;20456;-68
2023/09/05 05:27:43;;;;;;;5.90;3.10;;;15.70;98.00;;;;;;5011277;28;20467;-67
2023/09/05 05:30:12;;;;;;;7.27;3.27;;;15.70;98.00;;;;;;5011562;28;20459;-67
2023/09/05 05:32:39;;;;;;;5.50;2.83;;;15.80;98.00;;;;;;5010065;28;20476;-69
2023/09/05 05:35:08;;;;;;;5.60;3.10;;;15.90;98.00;;;;;;5011595;28;20460;-67
2023/09/05 05:37:35;;;;;;;5.30;2.90;;;16.10;98.00;;;;;;5011252;28;20455;-67
2023/09/05 05:40:02;;;;;;;5.33;3.00;;;16.30;98.00;;;;;;5011485;28;20456;-67
2023/09/05 05:42:30;;;;;;;7.57;3.90;;;16.40;98.00;;;;;;5010161;28;20490;-68
2023/09/05 05:45:00;;;;;;;4.97;2.83;;;16.40;98.00;;;;;;5009979;28;20833;-67
2023/09/05 05:47:31;;;;;;;6.70;3.43;;;16.50;98.00;;;;;;5011439;28;20451;-67
2023/09/05 05:49:58;;;;;;;5.10;3.00;;;16.50;98.00;;;;;;5011328;28;20881;-68
2023/09/05 05:52:25;;;;;;;5.30;3.23;;;16.40;98.00;;;;;;5011320;28;20452;-67
2023/09/05 05:54:52;;;;;;;5.87;3.40;;;16.30;98.00;;;;;;5011353;28;20846;-67
2023/09/05 05:57:19;;;;;;;6.00;3.50;;;16.20;98.00;;;;;;5011186;28;20455;-68
2023/09/05 05:59:46;;;;;;;5.17;3.20;;;16.10;98.00;;;;;;5011199;28;20451;-67
2023/09/05 06:02:15;;;;;;;5.30;2.97;;;16.10;98.00;;;;;;5011248;28;20494;-68
2023/09/05 06:04:42;;;;;;;5.23;3.13;;;16.20;98.00;;;;;;5010833;28;20455;-68
2023/09/05 06:07:09;;;;;;;6.87;3.20;;;16.10;98.00;;;;;;4993987;28;20452;-68
2023/09/05 06:09:37;;;;;;;7.30;3.10;;;16.20;98.00;;;;;;5014619;28;20448;-68
2023/09/05 06:12:05;;;;;;;5.90;3.50;;;16.20;98.00;;;;;;5013305;28;20455;-66
2023/09/05 06:14:32;;;;;;;4.93;3.13;;;16.20;98.00;;;;;;5014961;28;20546;-65
2023/09/05 06:16:59;;;;;;;5.90;3.27;;;16.30;98.00;;;;;;5015262;28;20467;-66
2023/09/05 06:19:27;;;;;;;6.37;3.10;;;16.30;98.00;;;;;;5015092;28;20455;-65
2023/09/05 06:21:56;;;;;;;6.97;3.20;;;16.30;98.00;;;;;;5015209;28;20562;-65
2023/09/05 06:24:23;;;;;;;8.10;3.33;;;16.30;98.00;;;;;;5015103;28;20458;-65
2023/09/05 06:26:50;;;;;;;5.73;2.90;;;16.40;98.00;;;;;;5015060;28;20451;-65
2023/09/05 06:29:17;;;;;;;5.23;3.17;;;16.40;98.00;;;;;;5014930;28;20456;-67
2023/09/05 06:31:44;;;;;;;6.30;3.40;;;16.50;98.00;;;;;;5015167;28;20479;-65
2023/09/05 06:34:11;;;;;;;6.13;2.90;;;16.70;98.00;;;;;;5015234;28;20531;-65
2023/09/05 06:36:40;;;;;;;5.83;3.57;;;16.70;98.00;;;;;;5014935;28;20539;-66
2023/09/05 06:39:07;;;;;;;6.93;3.47;;;16.80;98.00;;;;;;5014976;28;20448;-67
2023/09/05 06:41:35;;;;;;;4.50;3.00;;;16.90;98.00;;;;;;5013758;28;20463;-65
2023/09/05 06:44:02;;;;;;;6.73;3.30;;;17.10;98.00;;;;;;5014789;28;20515;-66
2023/09/05 06:46:29;;;;;;;7.30;3.30;;;17.20;98.00;;;;;;5014783;28;20850;-67
2023/09/05 06:48:56;;;;;;;7.63;3.67;;;17.40;98.00;;;;;;5014866;28;20454;-65
2023/09/05 06:51:23;;;;;;;7.57;3.10;;;17.60;98.00;;;;;;5013496;28;20483;-64
2023/09/05 06:53:52;;;;;;;7.53;3.07;;;17.70;98.00;;;;;;5013605;28;21135;-65
2023/09/05 06:56:20;;;;;;;6.87;3.20;;;17.80;98.00;;;;;;5014662;28;20460;-65
2023/09/05 06:58:47;;;;;;;4.97;3.20;;;18.00;98.00;;;;;;5014475;28;20455;-66
2023/09/05 07:01:14;;;;;;;5.20;3.03;;;18.10;98.00;;;;;;5014875;28;20470;-65
2023/09/05 07:03:41;;;;;;;5.17;3.23;;;18.30;98.00;;;;;;5014323;28;20487;-65
2023/09/05 07:06:08;;;;;;;7.97;3.70;;;18.50;98.00;;;;;;5014512;28;20452;-65
2023/09/05 07:08:35;;;;;;;8.27;3.40;;;18.70;98.00;;;;;;5014318;28;20467;-66
2023/09/05 07:11:04;;;;;;;4.90;3.23;;;18.90;98.00;;;;;;5014383;28;20458;-65
2023/09/05 07:13:31;;;;;;;5.23;3.23;;;19.00;98.00;;;;;;5014265;28;20538;-65
2023/09/05 07:15:58;;;;;;;6.43;3.30;;;19.30;98.00;;;;;;5014371;28;21099;-65
2023/09/05 07:18:25;;;;;;;6.07;3.33;;;19.40;98.00;;;;;;5014160;28;20462;-65
2023/09/05 07:20:52;;;;;;;7.43;3.10;;;19.60;98.00;;;;;;5013747;28;20459;-65
2023/09/05 07:23:19;;;;;;;6.30;2.90;;;19.70;98.00;;;;;;5014485;28;20621;-65
2023/09/05 07:25:46;;;;;;;7.00;3.03;;;19.80;98.00;;;;;;5014350;28;20902;-64
2023/09/05 07:28:15;;;;;;;3.83;2.60;;;19.90;98.00;;;;;;5016400;28;20897;-65
2023/09/05 07:30:42;;;;;;;5.03;2.77;;;20.00;98.00;;;;;;5033177;28;20470;-65
2023/09/05 07:33:10;;;;;;;4.73;3.20;;;20.20;98.00;;;;;;5029010;28;20467;-67
2023/09/05 07:35:37;;;;;;;6.50;3.47;;;20.30;98.00;;;;;;5013527;28;20527;-65
2023/09/05 07:38:05;;;;;;;7.60;4.00;;;20.40;98.00;;;;;;5013587;28;20450;-66
2023/09/05 07:40:32;;;;;;;4.60;2.87;;;20.50;98.00;;;;;;5013551;28;20460;-65
2023/09/05 07:43:01;;;;;;;4.67;2.93;;;20.60;98.00;;;;;;5013606;28;21027;-65
2023/09/05 07:45:33;;;;;;;4.20;2.87;;;20.70;98.00;;;;;;5013344;28;21020;-66
2023/09/05 07:48:00;;;;;;;4.90;3.10;;;20.80;98.00;;;;;;5013393;28;20455;-65
2023/09/05 07:50:29;;;;;;;4.30;3.10;;;20.90;98.00;;;;;;5013590;28;20455;-67
2023/09/05 07:52:56;;;;;;;4.83;3.17;;;21.00;98.00;;;;;;5012082;28;20455;-65
2023/09/05 07:55:23;;;;;;;5.93;2.70;;;21.20;98.00;;;;;;5011893;28;20452;-65
2023/09/05 07:57:51;;;;;;;5.20;3.10;;;21.30;98.00;;;;;;5013153;28;20460;-65
2023/09/05 08:00:19;;;;;;;4.83;3.03;;;21.40;98.00;;;;;;5013084;28;20452;-66
2023/09/05 08:02:48;;;;;;;5.23;3.50;;;21.50;98.00;;;;;;5013049;28;20494;-65
2023/09/05 08:05:15;;;;;;;4.10;2.80;;;21.60;98.00;;;;;;5012990;28;20455;-65
2023/09/05 08:07:42;;;;;;;8.83;3.20;;;21.70;98.00;;;;;;5013156;28;20459;-65
2023/09/05 08:10:10;;;;;;;4.83;2.90;;;21.80;98.00;;;;;;5013024;28;20452;-64
2023/09/05 08:12:37;;;;;;;4.03;2.67;;;21.90;98.00;;;;;;5012997;28;20456;-66
2023/09/05 08:15:06;;;;;;;4.90;3.20;;;22.00;98.00;;;;;;5012877;28;20458;-65
2023/09/05 08:17:33;;;;;;;7.63;3.20;;;22.10;98.00;;;;;;5012764;28;20874;-66
2023/09/05 08:20:03;;;;;;;4.97;3.10;;;22.20;98.00;;;;;;5012881;28;20466;-66
2023/09/05 08:22:30;;;;;;;6.17;2.73;;;22.20;98.00;;;;;;5012627;28;20452;-65
2023/09/05 08:24:57;;;;;;;5.30;3.23;;;22.30;98.00;;;;;;5012844;28;20460;-66
2023/09/05 08:27:28;;;;;;;12.13;2.73;;;22.40;98.00;;;;;;5011539;28;20456;-65
2023/09/05 08:29:56;;;;;;;4.93;2.90;;;22.50;98.00;;;;;;5012718;28;20933;-65
2023/09/05 08:32:24;;;;;;;5.23;3.10;;;22.70;98.00;;;;;;5012003;28;20521;-68
2023/09/05 08:34:51;;;;;;;4.17;2.83;;;22.70;98.00;;;;;;5012984;28;20828;-67
2023/09/05 08:37:19;;;;;;;4.80;3.20;;;22.90;98.00;;;;;;5012777;28;20462;-65
2023/09/05 08:39:47;;;;;;;5.23;3.10;;;23.00;98.00;;;;;;5012479;28;20459;-66
2023/09/05 08:42:14;;;;;;;4.43;2.60;;;23.10;98.00;;;;;;5012670;28;20487;-66
2023/09/05 08:44:42;;;;;;;3.70;2.63;;;23.20;98.00;;;;;;5012478;28;20495;-67
2023/09/05 08:47:09;;;;;;;6.90;3.20;;;23.30;98.00;;;;;;5012824;28;20443;-66
2023/09/05 08:49:37;;;;;;;4.60;3.00;;;23.40;98.00;;;;;;5011904;28;20444;-65
2023/09/05 08:52:07;;;;;;;4.50;3.00;;;23.50;98.00;;;;;;5012395;28;20455;-65
2023/09/05 08:54:35;;;;;;;4.57;2.80;;;23.60;98.00;;;;;;5012425;28;20828;-65
2023/09/05 08:57:03;;;;;;;5.57;3.03;;;23.50;98.00;;;;;;5012508;28;20448;-63
2023/09/05 08:59:32;;;;;;;4.63;3.10;;;23.70;98.00;;;;;;5012504;28;20547;-64
2023/09/05 09:02:01;;;;;;;4.53;3.17;;;23.70;98.00;;;;;;5012552;28;20964;-65
2023/09/05 09:04:29;;;;;;;4.27;2.83;;;23.80;98.00;;;;;;5012433;28;20870;-65
2023/09/05 09:06:59;;;;;;;4.13;2.70;;;23.90;98.00;;;;;;5012541;28;20451;-65
2023/09/05 09:09:34;;;;;;;4.30;2.50;;;24.00;98.00;;;;;;5011985;28;20562;-66
2023/09/05 09:12:04;;;;;;;3.10;2.60;;;24.20;98.00;;;;;;5012430;28;20465;-67
2023/09/05 09:14:31;;;;;;;3.90;2.90;;;24.30;98.00;;;;;;5012341;28;20458;-65
2023/09/05 09:17:06;;;;;;;3.47;2.80;;;24.50;98.00;;;;;;5012113;28;20456;-65
2023/09/05 09:19:34;;;;;;;4.00;2.90;;;24.60;98.00;;;;;;5012160;28;20854;-65
2023/09/05 09:22:03;;;;;;;4.47;2.97;;;24.70;98.00;;;;;;5012063;28;20455;-65
2023/09/05 09:24:34;;;;;;;3.73;2.57;;;24.80;98.00;;;;;;5011445;28;20534;-65
2023/09/05 09:27:07;;;;;;;4.90;2.67;;;24.90;98.00;;;;;;5011944;28;20542;-65
2023/09/05 09:29:34;;;;;;;3.87;2.83;;;25.00;98.00;;;;;;5011992;28;20451;-65
2023/09/05 09:32:04;;;;;;;3.83;2.67;;;25.00;97.80;;;;;;5012107;28;20448;-65
2023/09/05 09:34:31;;;;;;;3.80;2.73;;;25.20;98.00;;;;;;5011935;28;20572;-65
2023/09/05 09:36:58;;;;;;;3.80;2.90;;;25.30;97.40;;;;;;5011879;28;20495;-63
2023/09/05 09:39:26;;;;;;;4.77;2.70;;;25.50;96.10;;;;;;5011965;28;20532;-64
2023/09/05 09:41:53;;;;;;;3.50;2.60;;;25.60;97.70;;;;;;5012072;28;20539;-65
2023/09/05 09:44:30;;;;;;;4.07;2.50;;;25.70;96.50;;;;;;5014412;28;21001;-64
2023/09/05 09:47:00;;;;;;;3.20;2.50;;;25.80;96.20;;;;;;4998743;28;20830;-64
2023/09/05 09:49:30;;;;;;;4.20;2.83;;;26.00;97.10;;;;;;5015833;28;20463;-64
2023/09/05 09:51:58;;;;;;;3.50;2.83;;;26.00;97.20;;;;;;5016251;28;20455;-65
2023/09/05 09:54:31;;;;;;;4.47;2.83;;;26.20;94.70;;;;;;5015786;28;20471;-63
2023/09/05 09:57:00;;;;;;;3.87;2.60;;;26.30;96.80;;;;;;5015824;28;20459;-64
2023/09/05 09:59:35;;;;;;;5.33;3.17;;;26.50;95.20;;;;;;5014434;28;20491;-64
2023/09/05 10:02:08;;;;;;;4.27;2.93;;;26.60;96.10;;;;;;5015809;28;20479;-64
2023/09/05 10:04:36;;;;;;;3.37;2.70;;;26.70;93.20;;;;;;5015296;28;20574;-64
2023/09/05 10:07:06;;;;;;;4.50;2.90;;;26.90;94.70;;;;;;5015467;28;20477;-64
2023/09/05 10:09:36;;;;;;;4.70;2.90;;;27.00;96.00;;;;;;5032635;28;20485;-65
2023/09/05 10:12:07;;;;;;;3.57;2.83;;;26.90;92.30;;;;;;5035037;28;20458;-65
2023/09/05 10:14:37;;;;;;;4.57;2.87;;;27.00;93.60;;;;;;5034872;28;20474;-64
2023/09/05 10:17:06;;;;;;;4.43;2.90;;;27.10;93.20;;;;;;5034947;28;20459;-64
2023/09/05 10:19:34;;;;;;;5.97;3.50;;;27.30;94.90;;;;;;5034919;28;21085;-66
2023/09/05 10:22:07;;;;;;;4.10;2.83;;;27.40;93.70;;;;;;5034985;28;20458;-65
2023/09/05 10:24:37;;;;;;;3.93;2.93;;;27.40;93.10;;;;;;5034700;28;21221;-65
2023/09/05 10:27:18;;;;;;;4.07;2.77;;;27.50;95.30;;;;;;5034942;28;20455;-65
2023/09/05 10:29:49;;;;;;;5.63;3.33;;;27.50;93.10;;;;;;5033623;28;20459;-65
2023/09/05 10:32:19;;;;;;;4.03;3.00;;;27.60;92.40;;;;;;5034032;28;20450;-65
2023/09/05 10:35:02;;;;;;;3.80;2.90;;;27.80;94.10;;;;;;5033424;28;20459;-65
2023/09/05 10:37:44;;;;;;;3.77;3.10;;;27.90;94.00;;;;;;5034656;28;20454;-65
2023/09/05 10:40:12;;;;;;;6.30;2.70;;;28.00;94.50;;;;;;5034447;28;20458;-65
2023/09/05 10:42:44;;;;;;;3.50;2.70;;;28.00;91.40;;;;;;5034627;28;20447;-65
2023/09/05 10:45:29;;;;;;;3.83;2.60;;;28.20;93.70;;;;;;5034436;28;20490;-65
2023/09/05 10:48:01;;;;;;;8.23;3.00;;;28.30;91.00;;;;;;5034898;28;20917;-65
2023/09/05 10:50:28;;;;;;;3.27;2.80;;;28.50;91.40;;;;;;5034282;28;20446;-65
2023/09/05 10:53:22;;;;;;;4.87;3.13;;;28.50;92.70;;;;;;5034509;28;20508;-65
2023/09/05 10:55:52;;;;;;;3.63;2.77;;;28.60;92.10;;;;;;5033391;28;20546;-65
2023/09/05 10:58:43;;;;;;;4.10;2.70;;;28.60;92.50;;;;;;5034153;28;21174;-65
2023/09/05 11:01:52;;;;;;;3.77;2.70;;;28.70;91.10;;;;;;5034116;28;20458;-63
2023/09/05 11:04:29;;;;;;;3.77;2.97;;;28.90;90.50;;;;;;5033955;28;20513;-62
2023/09/05 11:07:08;;;;;;;3.60;2.80;;;29.30;93.00;;;;;;5033703;28;20794;-63
2023/09/05 11:09:57;;;;;;;3.97;2.70;;;29.50;88.40;;;;;;5032629;28;20505;-62
2023/09/05 11:12:25;;;;;;;3.63;2.63;;;29.80;88.80;;;;;;5032524;28;20509;-62
2023/09/05 11:14:54;;;;;;;3.17;2.33;;;30.00;89.50;;;;;;5033031;28;20987;-63
2023/09/05 11:17:23;;;;;;;3.70;2.67;;;30.10;89.30;;;;;;5033649;28;20512;-66
2023/09/05 11:19:53;;;;;;;6.13;2.73;;;30.10;88.30;;;;;;5032917;28;20490;-66
2023/09/05 11:22:22;;;;;;;4.80;2.80;;;30.30;87.00;;;;;;5033105;28;20455;-67
2023/09/05 11:24:50;;;;;;;4.70;2.70;;;30.50;87.60;;;;;;5033467;28;20560;-67
2023/09/05 11:27:20;;;;;;;5.00;2.93;;;30.70;87.20;;;;;;5032504;28;20449;-66
2023/09/05 11:29:51;;;;;;;3.60;2.70;;;30.70;86.50;;;;;;5033504;28;20459;-66
2023/09/05 11:32:18;;;;;;;8.63;2.63;;;30.70;87.30;;;;;;5033539;28;20454;-66
2023/09/05 11:34:48;;;;;;;4.50;2.80;;;31.10;87.50;;;;;;5033562;28;20454;-63
2023/09/05 11:37:17;;;;;;;3.33;2.73;;;31.40;87.00;;;;;;5033686;28;20454;-64
2023/09/05 11:39:44;;;;;;;4.10;2.60;;;31.60;86.00;;;;;;5033347;28;20439;-61
2023/09/05 11:42:22;;;;;;;3.50;2.70;;;31.80;84.50;;;;;;5032921;28;20451;-61
2023/09/05 11:44:50;;;;;;;3.40;2.60;;;32.00;82.90;;;;;;5033225;28;20486;-62
2023/09/05 11:47:19;;;;;;;4.00;2.77;;;32.20;84.30;;;;;;5033307;28;20542;-62
2023/09/05 11:49:49;;;;;;;4.20;2.60;;;32.30;82.50;;;;;;5033245;28;20791;-62
2023/09/05 11:52:18;;;;;;;3.77;2.80;;;32.40;83.80;;;;;;5033247;28;20795;-62
2023/09/05 11:54:47;;;;;;;2.93;2.43;;;32.50;83.60;;;;;;5033069;28;20463;-62
2023/09/05 11:57:16;;;;;;;3.67;2.53;;;32.70;82.30;;;;;;5033193;28;20453;-61
2023/09/05 11:59:44;;;;;;;3.43;2.57;;;32.90;82.50;;;;;;5033067;28;20525;-61
2023/09/05 12:02:17;;;;;;;3.73;2.90;;;33.00;82.10;;;;;;5033083;28;20455;-62
2023/09/05 12:04:48;;;;;;;3.43;2.57;;;33.00;81.10;;;;;;5032865;28;21039;-62
2023/09/05 12:07:15;;;;;;;3.20;2.70;;;33.10;80.80;;;;;;5031951;28;20549;-63
2023/09/05 12:09:47;;;;;;;5.20;3.40;;;33.00;79.50;;;;;;5032902;28;20450;-63
2023/09/05 12:12:17;;;;;;;4.67;3.00;;;33.10;81.40;;;;;;5031916;28;20466;-62
2023/09/05 12:14:52;;;;;;;2.83;2.43;;;33.20;81.30;;;;;;5032769;28;20486;-62
2023/09/05 12:17:21;;;;;;;5.23;2.80;;;33.30;79.90;;;;;;5032890;28;20580;-63
2023/09/05 12:19:51;;;;;;;3.83;2.63;;;33.40;79.80;;;;;;5033133;28;20455;-62
2023/09/05 12:22:26;;;;;;;3.30;2.67;;;33.60;80.70;;;;;;5032923;28;20542;-62
2023/09/05 12:25:07;;;;;;;3.53;2.67;;;33.70;79.00;;;;;;5032793;28;20489;-61
2023/09/05 12:27:34;;;;;;;3.47;2.43;;;33.40;79.80;;;;;;5031717;28;20462;-62
2023/09/05 12:30:04;;;;;;;3.30;2.43;;;33.50;79.40;;;;;;5032521;28;20485;-62
2023/09/05 12:32:31;;;;;;;3.70;2.60;;;33.60;80.60;;;;;;5032530;28;20462;-62
2023/09/05 12:34:59;;;;;;;3.13;2.60;;;33.70;79.20;;;;;;5032730;28;20516;-62
2023/09/05 12:37:29;;;;;;;3.60;2.80;;;33.70;78.40;;;;;;5032902;28;20454;-61
2023/09/05 12:39:57;;;;;;;2.80;2.40;;;34.00;79.30;;;;;;5014935;28;20524;-62
2023/09/05 12:42:25;;;;;;;3.43;2.50;;;34.00;78.30;;;;;;5032268;28;20454;-62
2023/09/05 12:44:53;;;;;;;5.67;3.03;;;34.00;77.10;;;;;;5032535;28;20486;-62
2023/09/05 12:47:20;;;;;;;3.33;2.47;;;34.10;76.00;;;;;;5032409;28;21020;-62
2023/09/05 12:49:48;;;;;;;3.50;2.60;;;34.20;76.70;;;;;;5032332;28;20470;-62
2023/09/05 12:52:20;;;;;;;3.33;2.70;;;34.40;75.30;;;;;;5032098;28;20459;-62
2023/09/05 12:54:49;;;;;;;2.60;2.20;;;34.60;78.30;;;;;;5032349;28;20451;-62